Terminal Aerodrome Forecast
Issued by NWS

Home | Current Version | Previous Version | Text Only | Print | Product List | Glossary On
Versions: 1 2 3 4 5 6 7 8 9 10 11 12 13 14 15 16 17
759
FTUS44 KJAN 310520
TAFGTR
TAF
KGTR 310520Z 3106/0106 00000KT 5SM BR SCT008 BKN100
     FM311400 29003KT P6SM SCT100 BKN250
     FM311800 33004KT P6SM VCTS SCT050CB
     FM010200 00000KT P6SM BKN250=

USA.gov is the U.S. government's official web portal to all federal, state and local government web resources and services.